Frazee, Minnesota
Current Conditions -  °F | °C
As of 2:16 PM on Monday 24 Nov 2014 (Local Time) from KDTL Reporting Station
Light Snow Light Snow  
Wind Chill: -5°   Ceiling: 600
Heat Index: 12°   Visibility: 3mi
Dew Point:   Wind: 17mph
Humidity: 85%   Direction: 330°NNW
Pressure: 29.72"   Gusts: 28mph
Location:  46.73°N, 95.7°W
Report Text: KDTL 242016Z AUTO 33015G24KT 3SM -SN BKN006 OVC011 M11/M13 A2972 RMK AO2
Loading
Personal Weather Stations






























Interactive Weather Map New forecast layout! Learn more

10-Day Weather Forecast

Advertisements
Track Severe Weather on mobile